createdAt,value
2023-05-10T00:02:20.121Z,99.90
2023-05-10T00:04:46.973Z,99.90
2023-05-10T00:07:13.809Z,99.90
2023-05-10T00:09:41.078Z,99.90
2023-05-10T00:12:07.961Z,99.90
2023-05-10T00:14:34.879Z,99.90
2023-05-10T00:17:01.781Z,99.90
2023-05-10T00:19:28.685Z,99.90
2023-05-10T00:21:55.480Z,99.90
2023-05-10T00:24:22.274Z,99.90
2023-05-10T00:26:49.075Z,99.90
2023-05-10T00:29:15.842Z,99.90
2023-05-10T00:31:42.732Z,99.90
2023-05-10T00:34:10.135Z,99.90
2023-05-10T00:36:36.938Z,99.90
2023-05-10T00:39:04.602Z,99.90
2023-05-10T00:41:34.286Z,99.90
2023-05-10T00:44:03.127Z,99.90
2023-05-10T00:46:30.384Z,99.90
2023-05-10T00:48:57.488Z,99.90
2023-05-10T00:51:24.489Z,99.90
2023-05-10T00:53:52.434Z,99.90
2023-05-10T00:56:21.497Z,99.90
2023-05-10T00:58:48.316Z,99.90
2023-05-10T01:01:15.325Z,99.90
2023-05-10T01:03:42.648Z,99.90
2023-05-10T01:06:10.977Z,99.90
2023-05-10T01:08:38.054Z,99.90
2023-05-10T01:11:04.892Z,99.90
2023-05-10T01:13:37.204Z,99.90
2023-05-10T01:16:05.019Z,99.90
2023-05-10T01:18:40.290Z,99.90
2023-05-10T01:21:49.283Z,99.90
2023-05-10T01:25:05.469Z,99.90
2023-05-10T01:27:53.926Z,99.90
2023-05-10T01:30:34.705Z,99.90
2023-05-10T01:33:20.054Z,99.90
2023-05-10T01:36:15.526Z,99.90
2023-05-10T01:39:25.558Z,99.90
2023-05-10T01:41:58.452Z,99.90
2023-05-10T01:44:35.860Z,99.90
2023-05-10T01:47:12.350Z,99.90
2023-05-10T01:49:52.880Z,99.90
2023-05-10T01:52:23.547Z,99.90
2023-05-10T01:54:56.908Z,99.90
2023-05-10T01:57:26.938Z,99.90
2023-05-10T01:59:55.779Z,99.90
2023-05-10T02:02:25.116Z,99.90
2023-05-10T02:04:52.403Z,99.90
2023-05-10T02:07:20.160Z,99.90
2023-05-10T02:09:49.051Z,99.90
2023-05-10T02:12:17.121Z,99.90
2023-05-10T02:14:45.166Z,99.90
2023-05-10T02:17:13.134Z,99.90
2023-05-10T02:19:43.028Z,99.90
2023-05-10T02:22:10.695Z,99.90
2023-05-10T02:24:39.484Z,99.90
2023-05-10T02:27:07.913Z,99.90
2023-05-10T02:29:36.955Z,99.90
2023-05-10T02:32:04.503Z,99.90
2023-05-10T02:34:32.354Z,99.90
2023-05-10T02:37:00.753Z,99.90
2023-05-10T02:39:29.632Z,99.90
2023-05-10T02:41:58.665Z,99.90
2023-05-10T02:44:28.469Z,99.90
2023-05-10T02:46:57.041Z,99.90
2023-05-10T02:49:24.027Z,99.90
2023-05-10T02:51:57.770Z,99.90
2023-05-10T02:54:31.167Z,99.90
2023-05-10T02:57:01.658Z,99.90
2023-05-10T02:59:28.576Z,99.90
2023-05-10T03:01:55.561Z,99.90
2023-05-10T03:04:23.032Z,99.90
2023-05-10T03:06:50.377Z,99.90
2023-05-10T03:09:17.354Z,99.90
2023-05-10T03:11:47.182Z,99.90
2023-05-10T03:14:35.427Z,99.90
2023-05-10T03:17:06.816Z,99.90
2023-05-10T03:19:57.634Z,99.90
2023-05-10T03:22:38.377Z,99.90
2023-05-10T03:25:09.325Z,99.90
2023-05-10T03:27:39.213Z,99.90
2023-05-10T03:30:08.641Z,99.90
2023-05-10T03:32:35.887Z,99.90
2023-05-10T03:35:10.874Z,99.90
2023-05-10T03:37:38.083Z,99.90
2023-05-10T03:40:06.421Z,99.90
2023-05-10T03:42:35.598Z,99.90
2023-05-10T03:45:02.475Z,99.90
2023-05-10T03:47:30.783Z,99.90
2023-05-10T03:49:58.593Z,99.90
2023-05-10T03:52:25.383Z,99.90
2023-05-10T03:54:52.217Z,99.90
2023-05-10T03:57:19.080Z,99.90
2023-05-10T03:59:46.313Z,99.90
2023-05-10T04:02:13.302Z,99.90
2023-05-10T04:04:40.138Z,99.90
2023-05-10T04:07:07.004Z,99.90
2023-05-10T04:09:34.592Z,99.90
2023-05-10T04:12:03.376Z,99.90
2023-05-10T04:14:30.328Z,99.90
2023-05-10T04:16:57.227Z,99.90
2023-05-10T04:19:24.370Z,99.90
2023-05-10T04:21:51.182Z,99.90
2023-05-10T04:24:17.998Z,99.90
2023-05-10T04:26:44.886Z,99.90
2023-05-10T04:29:11.718Z,99.90
2023-05-10T04:31:38.905Z,99.90
2023-05-10T04:34:06.079Z,99.90
2023-05-10T04:36:34.890Z,99.90
2023-05-10T04:39:01.708Z,99.90
2023-05-10T04:41:28.508Z,99.90
2023-05-10T04:43:55.446Z,99.90
2023-05-10T04:46:22.710Z,99.90
2023-05-10T04:48:49.600Z,99.90
2023-05-10T04:51:16.396Z,99.90
2023-05-10T04:53:48.483Z,99.90
2023-05-10T04:56:21.158Z,99.90
2023-05-10T04:58:47.919Z,99.90
2023-05-10T05:01:14.950Z,99.90
2023-05-10T05:03:41.923Z,99.90
2023-05-10T05:06:08.860Z,99.90
2023-05-10T05:08:35.709Z,99.90
2023-05-10T05:11:02.656Z,99.90
2023-05-10T05:13:29.578Z,99.90
2023-05-10T05:15:56.641Z,99.90
2023-05-10T05:18:23.765Z,99.90
2023-05-10T05:20:50.623Z,99.90
2023-05-10T05:23:17.530Z,99.90
2023-05-10T05:25:44.367Z,99.90
2023-05-10T05:28:11.222Z,99.90
2023-05-10T05:30:38.033Z,99.90
2023-05-10T05:33:05.161Z,99.90
2023-05-10T05:35:32.062Z,99.90
2023-05-10T05:37:58.894Z,99.90
2023-05-10T05:40:25.749Z,99.90
2023-05-10T05:42:52.550Z,99.90
2023-05-10T05:45:19.731Z,99.90
2023-05-10T05:47:46.870Z,99.90
2023-05-10T05:50:13.848Z,99.90
2023-05-10T05:52:40.895Z,99.90
2023-05-10T05:55:08.145Z,99.70
2023-05-10T05:57:35.065Z,99.30
2023-05-10T06:00:01.916Z,98.90
2023-05-10T06:02:28.879Z,97.90
2023-05-10T06:04:55.721Z,98.10
2023-05-10T06:07:22.578Z,98.30
2023-05-10T06:09:49.470Z,97.10
2023-05-10T06:12:16.336Z,97.40
2023-05-10T06:14:43.109Z,97.20
2023-05-10T06:17:10.035Z,96.80
2023-05-10T06:19:37.844Z,96.20
2023-05-10T06:22:04.658Z,95.80
2023-05-10T06:24:31.518Z,95.50
2023-05-10T06:27:01.058Z,95.40
2023-05-10T06:29:27.916Z,94.40
2023-05-10T06:31:55.204Z,94.00
2023-05-10T06:34:22.030Z,93.30
2023-05-10T06:36:48.812Z,93.10
2023-05-10T06:39:15.645Z,92.00
2023-05-10T06:41:42.517Z,92.10
2023-05-10T06:44:09.534Z,92.00
2023-05-10T06:46:36.445Z,92.10
2023-05-10T06:49:03.308Z,91.20
2023-05-10T06:51:30.114Z,91.20
2023-05-10T06:53:56.931Z,91.30
2023-05-10T06:56:23.794Z,90.80
2023-05-10T06:58:50.641Z,90.20
2023-05-10T07:01:17.616Z,90.90
2023-05-10T07:03:44.515Z,91.60
2023-05-10T07:06:21.633Z,91.30
2023-05-10T07:08:52.519Z,90.30
2023-05-10T07:11:19.399Z,88.40
2023-05-10T07:13:47.451Z,85.70
2023-05-10T07:16:14.341Z,84.40
2023-05-10T07:18:41.266Z,84.70
2023-05-10T07:21:08.156Z,85.40
2023-05-10T07:23:34.961Z,87.40
2023-05-10T07:26:03.145Z,84.90
2023-05-10T07:28:29.966Z,83.30
2023-05-10T07:30:56.979Z,82.80
2023-05-10T07:33:23.861Z,80.10
2023-05-10T07:35:51.252Z,80.80
2023-05-10T07:38:18.505Z,80.30
2023-05-10T07:40:45.352Z,79.80
2023-05-10T07:43:12.175Z,80.10
2023-05-10T07:45:38.998Z,80.40
2023-05-10T07:48:05.967Z,80.30
2023-05-10T07:50:32.796Z,81.70
2023-05-10T07:52:59.748Z,80.10
2023-05-10T07:55:27.172Z,81.00
2023-05-10T07:57:54.000Z,79.60
2023-05-10T08:00:21.500Z,79.50
2023-05-10T08:02:48.896Z,78.60
2023-05-10T08:05:16.234Z,75.90
2023-05-10T08:07:43.451Z,77.40
2023-05-10T08:10:12.158Z,77.30
2023-05-10T08:12:39.368Z,76.40
2023-05-10T08:15:07.585Z,76.10
2023-05-10T08:17:34.502Z,75.40
2023-05-10T08:20:01.451Z,74.70
2023-05-10T08:22:28.391Z,72.50
2023-05-10T08:24:55.393Z,73.10
2023-05-10T08:27:22.279Z,74.20
2023-05-10T08:29:50.399Z,73.30
2023-05-10T08:32:18.025Z,72.20
2023-05-10T08:34:44.808Z,72.60
2023-05-10T08:37:14.094Z,72.70
2023-05-10T08:39:41.375Z,71.20
2023-05-10T08:42:10.197Z,71.60
2023-05-10T08:44:37.756Z,71.50
2023-05-10T08:47:10.118Z,71.00
2023-05-10T08:49:38.626Z,69.10
2023-05-10T08:52:06.903Z,67.60
2023-05-10T08:54:34.554Z,69.00
2023-05-10T08:57:01.618Z,67.80
2023-05-10T08:59:28.769Z,67.90
2023-05-10T09:01:58.858Z,67.10
2023-05-10T09:04:26.269Z,68.80
2023-05-10T09:06:53.258Z,67.80
2023-05-10T09:09:21.356Z,66.90
2023-05-10T09:11:48.459Z,67.70
2023-05-10T09:14:16.493Z,68.50
2023-05-10T09:16:43.688Z,67.50
2023-05-10T09:19:10.771Z,66.90
2023-05-10T09:21:41.070Z,66.00
2023-05-10T09:24:09.208Z,64.80
2023-05-10T09:26:37.031Z,65.70
2023-05-10T09:29:04.655Z,66.40
2023-05-10T09:31:49.181Z,65.00
2023-05-10T09:34:20.561Z,65.50
2023-05-10T09:36:59.223Z,66.20
2023-05-10T09:39:39.004Z,65.00
2023-05-10T09:42:08.037Z,66.60
2023-05-10T09:44:35.779Z,64.70
2023-05-10T09:47:03.290Z,63.60
2023-05-10T09:49:30.620Z,63.80
2023-05-10T09:52:08.277Z,63.70
2023-05-10T09:54:36.184Z,64.10
2023-05-10T09:57:03.299Z,64.60
2023-05-10T09:59:30.586Z,64.50
2023-05-10T10:01:59.207Z,63.00
2023-05-10T10:04:27.196Z,64.20
2023-05-10T10:07:05.218Z,65.10
2023-05-10T10:09:33.380Z,64.10
2023-05-10T10:12:04.788Z,64.10
2023-05-10T10:14:31.725Z,64.20
2023-05-10T10:17:08.183Z,61.90
2023-05-10T10:19:36.787Z,63.00
2023-05-10T10:22:04.018Z,63.60
2023-05-10T10:24:30.928Z,63.60
2023-05-10T10:27:15.538Z,62.20
2023-05-10T10:30:14.704Z,62.20
2023-05-10T10:33:07.976Z,62.30
2023-05-10T10:35:41.119Z,63.00
2023-05-10T10:38:09.549Z,61.90
2023-05-10T10:40:36.762Z,62.80
2023-05-10T10:43:22.038Z,62.50
2023-05-10T10:46:13.315Z,63.90
2023-05-10T10:48:52.316Z,62.30
2023-05-10T10:51:19.183Z,63.30
2023-05-10T10:53:48.904Z,62.60
2023-05-10T10:56:16.597Z,62.30
2023-05-10T10:58:52.314Z,63.30
2023-05-10T11:01:20.719Z,63.80
2023-05-10T11:04:16.471Z,62.00
2023-05-10T11:06:43.600Z,63.90
2023-05-10T11:09:12.592Z,61.80
2023-05-10T11:11:59.530Z,61.40
2023-05-10T11:14:26.825Z,62.70
2023-05-10T11:16:53.799Z,61.30
2023-05-10T11:19:20.792Z,61.40
2023-05-10T11:22:16.612Z,61.40
2023-05-10T11:24:59.122Z,61.70
2023-05-10T11:27:26.149Z,61.20
2023-05-10T11:29:53.426Z,63.00
2023-05-10T11:32:20.844Z,62.40
2023-05-10T11:34:49.205Z,61.90
2023-05-10T11:37:16.056Z,60.50
2023-05-10T11:39:48.457Z,59.90
2023-05-10T11:42:15.304Z,61.70
2023-05-10T11:44:42.969Z,61.40
2023-05-10T11:47:10.156Z,62.50
2023-05-10T11:49:37.017Z,60.70
2023-05-10T11:52:10.134Z,61.70
2023-05-10T11:54:37.148Z,60.60
2023-05-10T11:57:04.622Z,60.80
2023-05-10T11:59:31.642Z,60.80
2023-05-10T12:01:58.924Z,61.80
2023-05-10T12:04:26.838Z,60.80
2023-05-10T12:06:53.738Z,63.00
2023-05-10T12:09:31.399Z,59.30
2023-05-10T12:12:06.976Z,60.90
2023-05-10T12:14:36.690Z,60.90
2023-05-10T12:17:03.568Z,59.90
2023-05-10T12:19:38.517Z,61.10
2023-05-10T12:22:08.482Z,60.40
2023-05-10T12:24:37.343Z,61.10
2023-05-10T12:29:56.306Z,61.00
2023-05-10T12:32:42.138Z,59.20
2023-05-10T12:35:09.886Z,59.70
2023-05-10T12:37:39.891Z,61.90
2023-05-10T12:40:09.166Z,63.10
2023-05-10T12:42:37.104Z,62.50
2023-05-10T12:45:04.799Z,59.00
2023-05-10T12:47:32.463Z,59.90
2023-05-10T12:50:01.257Z,60.10
2023-05-10T12:52:28.917Z,58.90
2023-05-10T12:54:55.786Z,60.80
2023-05-10T12:57:22.900Z,58.60
2023-05-10T12:59:49.889Z,58.50
2023-05-10T13:02:19.129Z,59.00
2023-05-10T13:04:48.962Z,58.40
2023-05-10T13:07:17.830Z,58.50
2023-05-10T13:09:44.703Z,58.60
2023-05-10T13:12:11.657Z,59.60
2023-05-10T13:14:38.672Z,59.60
2023-05-10T13:17:05.601Z,60.00
2023-05-10T13:19:32.468Z,58.80
2023-05-10T13:21:59.404Z,59.30
2023-05-10T13:24:26.296Z,57.80
2023-05-10T13:26:53.120Z,57.50
2023-05-10T13:29:20.301Z,57.50
2023-05-10T13:31:47.212Z,55.80
2023-05-10T13:34:14.080Z,56.80
2023-05-10T13:36:40.960Z,57.30
2023-05-10T13:39:08.140Z,56.80
2023-05-10T13:41:35.079Z,57.20
2023-05-10T13:44:01.877Z,56.80
2023-05-10T13:46:29.806Z,56.10
2023-05-10T13:48:57.816Z,57.00
2023-05-10T13:51:24.734Z,57.10
2023-05-10T13:53:51.557Z,56.70
2023-05-10T13:56:18.423Z,57.00
2023-05-10T13:58:45.291Z,57.00
2023-05-10T14:01:13.201Z,55.20
2023-05-10T14:03:40.504Z,56.70
2023-05-10T14:06:08.524Z,55.70
2023-05-10T14:08:36.645Z,56.30
2023-05-10T14:11:03.896Z,56.20
2023-05-10T14:13:30.904Z,56.00
2023-05-10T14:15:57.796Z,55.00
2023-05-10T14:18:24.756Z,56.30
2023-05-10T14:20:51.642Z,55.00
2023-05-10T14:23:20.572Z,54.90
2023-05-10T14:25:47.476Z,55.50
2023-05-10T14:28:14.363Z,55.30
2023-05-10T14:30:41.291Z,55.20
2023-05-10T14:33:09.015Z,55.40
2023-05-10T14:35:36.116Z,54.90
2023-05-10T14:38:05.788Z,55.30
2023-05-10T14:40:32.778Z,55.30
2023-05-10T14:42:59.588Z,55.10
2023-05-10T14:45:26.859Z,55.50
2023-05-10T14:47:53.713Z,55.90
2023-05-10T14:50:35.109Z,56.50
2023-05-10T14:53:03.595Z,55.40
2023-05-10T14:55:31.067Z,54.70
2023-05-10T14:57:59.203Z,55.10
2023-05-10T15:00:26.622Z,54.80
2023-05-10T15:02:53.740Z,55.10
2023-05-10T15:05:21.288Z,55.00
2023-05-10T15:07:48.508Z,55.10
2023-05-10T15:10:16.042Z,55.60
2023-05-10T15:12:42.910Z,55.60
2023-05-10T15:15:09.791Z,54.40
2023-05-10T15:17:36.690Z,55.40
2023-05-10T15:20:04.683Z,55.00
2023-05-10T15:22:34.338Z,55.10
2023-05-10T15:25:01.716Z,54.20
2023-05-10T15:27:28.614Z,55.00
2023-05-10T15:29:56.246Z,55.30
2023-05-10T15:32:23.158Z,55.50
2023-05-10T15:34:49.982Z,54.70
2023-05-10T15:37:16.851Z,54.90
2023-05-10T15:39:43.745Z,55.10
2023-05-10T15:42:10.561Z,54.90
2023-05-10T15:44:39.397Z,54.40
2023-05-10T15:47:06.956Z,54.50
2023-05-10T15:49:34.043Z,54.70
2023-05-10T15:52:01.081Z,55.00
2023-05-10T15:54:28.096Z,55.30
2023-05-10T15:56:55.420Z,55.10
2023-05-10T15:59:22.324Z,55.20
2023-05-10T16:01:50.231Z,53.90
2023-05-10T16:04:17.084Z,54.50
2023-05-10T16:06:43.900Z,54.70
2023-05-10T16:09:10.729Z,54.40
2023-05-10T16:11:37.661Z,54.90
2023-05-10T16:14:06.171Z,55.20
2023-05-10T16:16:33.995Z,53.50
2023-05-10T16:19:01.512Z,54.00
2023-05-10T16:21:29.822Z,54.10
2023-05-10T16:23:56.694Z,53.90
2023-05-10T16:26:23.827Z,54.30
2023-05-10T16:28:50.998Z,53.50
2023-05-10T16:31:20.641Z,53.60
2023-05-10T16:33:47.553Z,54.60
2023-05-10T16:36:14.383Z,54.00
2023-05-10T16:38:41.956Z,54.20
2023-05-10T16:41:08.754Z,54.30
2023-05-10T16:43:36.745Z,53.70
2023-05-10T16:46:09.502Z,53.30
2023-05-10T16:48:36.423Z,53.50
2023-05-10T16:51:04.508Z,53.90
2023-05-10T16:53:31.620Z,53.60
2023-05-10T16:55:58.451Z,53.20
2023-05-10T16:58:25.323Z,54.00
2023-05-10T17:00:52.149Z,53.30
2023-05-10T17:03:19.082Z,53.40
2023-05-10T17:05:46.118Z,53.30
2023-05-10T17:08:12.979Z,53.90
2023-05-10T17:10:40.915Z,53.80
2023-05-10T17:13:10.297Z,54.10
2023-05-10T17:15:38.667Z,53.70
2023-05-10T17:18:07.070Z,54.20
2023-05-10T17:20:34.458Z,53.70
2023-05-10T17:23:03.165Z,53.50
2023-05-10T17:25:30.228Z,53.90
2023-05-10T17:27:57.005Z,53.50
2023-05-10T17:30:27.440Z,54.20
2023-05-10T17:32:54.480Z,53.80
2023-05-10T17:35:21.665Z,53.90
2023-05-10T17:37:48.469Z,54.10
2023-05-10T17:40:15.464Z,55.30
2023-05-10T17:42:42.715Z,55.40
2023-05-10T17:45:10.504Z,55.30
2023-05-10T17:47:37.781Z,56.10
2023-05-10T17:50:05.492Z,56.50
2023-05-10T17:52:33.707Z,56.70
2023-05-10T17:55:00.949Z,56.80
2023-05-10T17:57:28.147Z,57.40
2023-05-10T17:59:55.011Z,58.00
2023-05-10T18:02:21.967Z,58.50
2023-05-10T18:04:49.439Z,58.90
2023-05-10T18:07:16.557Z,58.80
2023-05-10T18:09:43.574Z,58.80
2023-05-10T18:12:10.387Z,58.70
2023-05-10T18:14:41.017Z,59.00
2023-05-10T18:17:09.412Z,58.70
2023-05-10T18:19:36.413Z,58.90
2023-05-10T18:22:03.333Z,59.20
2023-05-10T18:24:38.999Z,59.70
2023-05-10T18:27:10.237Z,60.90
2023-05-10T18:29:37.483Z,62.40
2023-05-10T18:32:04.548Z,63.40
2023-05-10T18:34:31.375Z,64.30
2023-05-10T18:36:58.333Z,65.80
2023-05-10T18:39:25.193Z,65.90
2023-05-10T18:41:52.095Z,66.00
2023-05-10T18:44:19.173Z,67.20
2023-05-10T18:46:46.473Z,67.50
2023-05-10T18:49:13.427Z,67.90
2023-05-10T18:51:40.436Z,68.50
2023-05-10T18:54:07.458Z,69.20
2023-05-10T18:56:34.390Z,69.80
2023-05-10T18:59:01.502Z,70.30
2023-05-10T19:01:28.391Z,71.20
2023-05-10T19:03:55.420Z,71.50
2023-05-10T19:06:22.234Z,72.10
2023-05-10T19:08:50.009Z,72.40
2023-05-10T19:11:16.871Z,73.30
2023-05-10T19:13:45.172Z,73.80
2023-05-10T19:16:14.333Z,75.10
2023-05-10T19:18:42.632Z,76.10
2023-05-10T19:21:11.432Z,76.70
2023-05-10T19:23:40.339Z,78.00
2023-05-10T19:26:08.272Z,77.60
2023-05-10T19:28:36.754Z,79.50
2023-05-10T19:31:03.887Z,80.80
2023-05-10T19:33:30.817Z,81.30
2023-05-10T19:35:57.753Z,82.90
2023-05-10T19:38:25.567Z,83.60
2023-05-10T19:40:57.984Z,84.00
2023-05-10T19:43:29.926Z,83.90
2023-05-10T19:46:02.381Z,84.10
2023-05-10T19:48:29.563Z,84.40
2023-05-10T19:51:05.158Z,84.40
2023-05-10T19:53:33.584Z,85.10
2023-05-10T19:56:05.289Z,85.30
2023-05-10T19:58:33.447Z,86.10
2023-05-10T20:01:00.470Z,86.20
2023-05-10T20:03:27.436Z,86.30
2023-05-10T20:05:54.389Z,86.60
2023-05-10T20:08:21.271Z,87.10
2023-05-10T20:10:48.134Z,87.70
2023-05-10T20:13:15.010Z,87.70
2023-05-10T20:15:41.905Z,87.80
2023-05-10T20:18:08.821Z,88.50
2023-05-10T20:20:35.646Z,88.90
2023-05-10T20:23:02.513Z,89.30
2023-05-10T20:25:29.348Z,89.80
2023-05-10T20:27:56.256Z,89.90
2023-05-10T20:30:23.157Z,90.20
2023-05-10T20:32:49.998Z,90.40
2023-05-10T20:35:17.021Z,90.60
2023-05-10T20:37:43.861Z,90.80
2023-05-10T20:40:11.106Z,90.70
2023-05-10T20:42:38.184Z,91.00
2023-05-10T20:45:05.577Z,90.90
2023-05-10T20:47:32.628Z,91.00
2023-05-10T20:49:59.499Z,91.10
2023-05-10T20:52:26.302Z,91.30
2023-05-10T20:54:53.082Z,91.20
2023-05-10T20:57:20.448Z,91.40
2023-05-10T20:59:47.280Z,91.50
2023-05-10T21:02:14.070Z,91.50
2023-05-10T21:04:41.339Z,91.50
2023-05-10T21:07:08.222Z,91.60
2023-05-10T21:09:35.820Z,91.70
2023-05-10T21:12:03.394Z,91.80
2023-05-10T21:14:33.298Z,91.80
2023-05-10T21:17:00.292Z,91.70
2023-05-10T21:19:27.252Z,91.80
2023-05-10T21:21:56.138Z,91.80
2023-05-10T21:24:23.396Z,92.00
2023-05-10T21:26:50.261Z,92.10
2023-05-10T21:29:17.138Z,92.10
2023-05-10T21:31:43.958Z,92.30
2023-05-10T21:34:10.799Z,92.30
2023-05-10T21:36:37.838Z,92.20
2023-05-10T21:39:04.663Z,92.20
2023-05-10T21:41:31.547Z,92.30
2023-05-10T21:43:58.463Z,92.20
2023-05-10T21:46:25.678Z,92.30
2023-05-10T21:48:52.589Z,92.20
2023-05-10T21:51:19.619Z,92.30
2023-05-10T21:53:46.538Z,92.30
2023-05-10T21:56:13.310Z,92.30
2023-05-10T21:58:40.133Z,92.30
2023-05-10T22:01:06.954Z,92.40
2023-05-10T22:03:33.832Z,92.50
2023-05-10T22:06:00.720Z,92.60
2023-05-10T22:08:27.647Z,92.50
2023-05-10T22:10:54.546Z,92.60
2023-05-10T22:13:21.346Z,92.50
2023-05-10T22:15:48.257Z,92.60
2023-05-10T22:18:15.106Z,92.60
2023-05-10T22:20:45.065Z,92.60
2023-05-10T22:23:12.297Z,92.70
2023-05-10T22:25:39.199Z,92.80
2023-05-10T22:28:07.376Z,92.80
2023-05-10T22:30:34.818Z,92.80
2023-05-10T22:33:01.941Z,92.90
2023-05-10T22:35:28.920Z,92.90
2023-05-10T22:37:55.787Z,92.90
2023-05-10T22:40:22.815Z,93.10
2023-05-10T22:42:49.618Z,93.10
2023-05-10T22:45:16.769Z,93.10
2023-05-10T22:47:43.643Z,93.20
2023-05-10T22:50:11.695Z,93.20
2023-05-10T22:52:39.574Z,93.30
2023-05-10T22:55:07.168Z,93.30
2023-05-10T22:57:34.438Z,93.40
2023-05-10T23:00:02.111Z,93.50
2023-05-10T23:02:29.170Z,93.40
2023-05-10T23:04:56.067Z,93.50
2023-05-10T23:07:23.965Z,93.50
2023-05-10T23:09:50.960Z,93.60
2023-05-10T23:12:17.894Z,93.70
2023-05-10T23:14:46.527Z,93.70
2023-05-10T23:17:13.637Z,93.80
2023-05-10T23:19:40.590Z,93.80
2023-05-10T23:22:07.718Z,93.80
2023-05-10T23:24:34.589Z,94.00
2023-05-10T23:27:01.372Z,94.00
2023-05-10T23:29:28.809Z,94.20
2023-05-10T23:31:55.921Z,94.20
2023-05-10T23:34:22.769Z,94.30
2023-05-10T23:36:49.591Z,94.40
2023-05-10T23:39:16.597Z,94.40
2023-05-10T23:41:43.503Z,94.60
2023-05-10T23:44:10.272Z,94.40
2023-05-10T23:46:37.136Z,94.60
2023-05-10T23:49:04.017Z,94.70
2023-05-10T23:51:30.962Z,94.70
2023-05-10T23:53:57.772Z,94.60
2023-05-10T23:56:24.664Z,94.70
2023-05-10T23:58:51.683Z,94.80
